This is the latest recevied weather packets stored in our database for station/object SQ5LTL-2. If no packets are shown the sender has not sent any weather packets the latest 10 day(s).
| Time | Temp. | Humidity | Pressure | Rain* | Wind** | Luminosity | Snow |
|---|---|---|---|---|---|---|---|
| 1778103932 | 15.56° C | 84% | 1007.6 hPa | 1.02 mm | - | 0 W/m² | - |
| 1778103631 | 16.11° C | 79% | 1007.6 hPa | 1.02 mm | - | 0 W/m² | - |
| 1778103329 | 16.11° C | 81% | 1007.7 hPa | 1.02 mm | - | 0 W/m² | - |
| 1778103028 | 16.67° C | 77% | 1007.8 hPa | 1.02 mm | - | 0 W/m² | - |
| 1778102728 | 16.67° C | 77% | 1007.8 hPa | 1.02 mm | - | 0 W/m² | - |
| 1778102425 | 16.67° C | 81% | 1007.6 hPa | 1.02 mm | - | 0 W/m² | - |
| 1778102124 | 16.67° C | 81% | 1008 hPa | 0.76 mm | - | 0 W/m² | - |
| 1778101822 | 16.67° C | 80% | 1008 hPa | 0.76 mm | - | 0 W/m² | - |
| 1778101521 | 17.22° C | 76% | 1008.1 hPa | 0.76 mm | - | 0 W/m² | - |
| 1778101219 | 17.78° C | 74% | 1008.2 hPa | 0.51 mm | - | 0 W/m² | - |
| 1778100918 | 18.89° C | 66% | 1008 hPa | 0.51 mm | - | 0 W/m² | - |
| 1778100616 | 19.44° C | 61% | 1008 hPa | 0 mm | - | 0 W/m² | - |
| 1778100335 | 19.44° C | 61% | 1007.9 hPa | 0 mm | - | 0 W/m² | - |
| 1778100033 | 19.44° C | 62% | 1008 hPa | 0 mm | - | 0 W/m² | - |
| 1778099732 | 20° C | 60% | 1008 hPa | 0 mm | - | 0 W/m² | - |
| 1778099432 | 20° C | 58% | 1008.1 hPa | 0 mm | - | 0 W/m² | - |
| 1778099129 | 20° C | 58% | 1007.9 hPa | 0 mm | - | 0 W/m² | - |
| 1778098827 | 20° C | 57% | 1007.9 hPa | 0 mm | - | 0 W/m² | - |
| 1778098526 | 20° C | 56% | 1007.9 hPa | 0 mm | - | 0 W/m² | - |
| 1778098225 | 20° C | 56% | 1007.8 hPa | 0 mm | - | 0 W/m² | - |
| 1778097925 | 19.44° C | 57% | 1007.7 hPa | 0 mm | - | 0 W/m² | - |
| 1778097622 | 18.89° C | 59% | 1007.8 hPa | 0 mm | - | 0 W/m² | - |
| 1778097321 | 17.22° C | 66% | 1007.7 hPa | 0 mm | - | 0 W/m² | - |
| 1778097019 | 16.67° C | 67% | 1007.6 hPa | 0 mm | - | 0 W/m² | - |
| 1778096717 | 17.22° C | 66% | 1007.8 hPa | 0 mm | - | 0 W/m² | - |
* Rain latest hour (hover to see other rain measurements)
** Current wind speed in m/s (hover to see current wind gust speed)